createdAt,value
2019-03-30T00:00:56.796Z,80.10
2019-03-30T00:03:29.488Z,80.10
2019-03-30T00:06:03.150Z,80.30
2019-03-30T00:08:34.639Z,79.80
2019-03-30T00:11:07.872Z,80.50
2019-03-30T00:13:40.981Z,81.40
2019-03-30T00:16:17.297Z,81.40
2019-03-30T00:18:50.234Z,81.20
2019-03-30T00:21:25.115Z,80.60
2019-03-30T00:23:57.883Z,80.10
2019-03-30T00:26:29.635Z,80.60
2019-03-30T00:29:02.297Z,80.40
2019-03-30T00:31:38.129Z,81.00
2019-03-30T00:34:11.200Z,80.60
2019-03-30T00:36:44.307Z,80.80
2019-03-30T00:39:17.003Z,80.50
2019-03-30T00:41:53.209Z,80.60
2019-03-30T00:44:25.013Z,80.20
2019-03-30T00:46:56.526Z,80.40
2019-03-30T00:49:27.924Z,80.50
2019-03-30T00:52:00.721Z,80.20
2019-03-30T00:54:33.492Z,79.90
2019-03-30T00:57:10.025Z,80.40
2019-03-30T00:59:42.786Z,79.40
2019-03-30T01:02:18.814Z,80.00
2019-03-30T01:04:52.924Z,80.00
2019-03-30T01:07:25.700Z,79.70
2019-03-30T01:09:58.905Z,78.80
2019-03-30T01:12:30.536Z,78.50
2019-03-30T01:15:05.370Z,78.30
2019-03-30T01:17:38.202Z,78.20
2019-03-30T01:20:16.458Z,78.20
2019-03-30T01:22:49.073Z,78.00
2019-03-30T01:25:22.167Z,77.80
2019-03-30T01:27:55.273Z,77.50
2019-03-30T01:30:36.110Z,77.50
2019-03-30T01:33:07.794Z,77.40
2019-03-30T01:35:39.436Z,76.60
2019-03-30T01:38:10.944Z,76.00
2019-03-30T01:40:43.745Z,75.80
2019-03-30T01:43:22.426Z,75.70
2019-03-30T01:45:55.698Z,75.70
2019-03-30T01:48:27.217Z,74.50
2019-03-30T01:51:07.350Z,74.60
2019-03-30T01:53:42.797Z,74.60
2019-03-30T01:56:22.153Z,74.60
2019-03-30T01:58:59.997Z,74.70
2019-03-30T02:01:32.441Z,73.50
2019-03-30T02:04:04.145Z,73.30
2019-03-30T02:06:37.409Z,73.20
2019-03-30T02:09:10.441Z,72.90
2019-03-30T02:11:43.685Z,73.10
2019-03-30T02:14:18.864Z,73.80
2019-03-30T02:16:50.405Z,72.50
2019-03-30T02:19:23.359Z,71.70
2019-03-30T02:21:56.468Z,70.80
2019-03-30T02:24:29.502Z,69.80
2019-03-30T02:27:01.001Z,70.40
2019-03-30T02:29:33.835Z,70.00
2019-03-30T02:32:07.075Z,70.10
2019-03-30T02:34:42.628Z,69.40
2019-03-30T02:37:15.614Z,68.50
2019-03-30T02:39:54.920Z,67.60
2019-03-30T02:42:27.603Z,67.50
2019-03-30T02:45:02.715Z,66.80
2019-03-30T02:47:38.062Z,66.70
2019-03-30T02:50:10.098Z,65.80
2019-03-30T02:52:42.759Z,65.60
2019-03-30T02:55:17.753Z,65.40
2019-03-30T02:57:50.446Z,65.00
2019-03-30T03:00:22.277Z,63.70
2019-03-30T03:02:55.076Z,59.70
2019-03-30T03:05:28.393Z,61.80
2019-03-30T03:08:01.142Z,61.60
2019-03-30T03:10:36.348Z,60.80
2019-03-30T03:13:09.173Z,59.00
2019-03-30T03:15:42.425Z,58.40
2019-03-30T03:18:14.032Z,57.80
2019-03-30T03:20:47.494Z,58.40
2019-03-30T03:23:20.595Z,57.30
2019-03-30T03:25:53.420Z,54.50
2019-03-30T03:28:26.284Z,55.00
2019-03-30T03:30:57.907Z,55.10
2019-03-30T03:33:30.860Z,55.10
2019-03-30T03:36:03.875Z,54.90
2019-03-30T03:41:27.689Z,55.10
2019-03-30T03:44:00.509Z,54.60
2019-03-30T03:46:33.205Z,53.40
2019-03-30T03:52:26.843Z,54.30
2019-03-30T03:54:59.582Z,52.20
2019-03-30T03:57:31.371Z,53.20
2019-03-30T04:00:07.056Z,53.30
2019-03-30T04:02:40.950Z,51.40
2019-03-30T04:05:14.247Z,48.80
2019-03-30T04:07:47.587Z,47.30
2019-03-30T04:10:20.541Z,45.60
2019-03-30T04:12:56.960Z,47.50
2019-03-30T04:15:31.198Z,45.10
2019-03-30T04:18:02.878Z,45.40
2019-03-30T04:20:36.036Z,44.60
2019-03-30T04:23:09.903Z,44.00
2019-03-30T04:25:45.351Z,44.90
2019-03-30T04:28:18.271Z,44.20
2019-03-30T04:30:51.188Z,45.20
2019-03-30T04:33:26.530Z,43.80
2019-03-30T04:35:59.429Z,44.80
2019-03-30T04:38:32.391Z,40.10
2019-03-30T04:41:05.408Z,39.50
2019-03-30T04:43:43.435Z,37.70
2019-03-30T04:46:20.141Z,41.00
2019-03-30T04:48:52.915Z,40.50
2019-03-30T04:51:28.231Z,38.30
2019-03-30T04:53:59.975Z,37.80
2019-03-30T04:56:41.964Z,35.90
2019-03-30T04:59:16.474Z,38.30
2019-03-30T05:01:49.353Z,33.20
2019-03-30T05:04:28.017Z,33.80
2019-03-30T05:07:01.451Z,37.90
2019-03-30T05:09:36.821Z,39.90
2019-03-30T05:12:14.119Z,40.20
2019-03-30T05:14:45.818Z,37.20
2019-03-30T05:17:19.111Z,36.30
2019-03-30T05:19:51.875Z,37.40
2019-03-30T05:22:23.521Z,37.40
2019-03-30T05:24:57.125Z,31.00
2019-03-30T05:27:30.290Z,31.70
2019-03-30T05:30:06.449Z,33.60
2019-03-30T05:32:41.995Z,35.40
2019-03-30T05:35:20.913Z,37.00
2019-03-30T05:37:54.401Z,37.20
2019-03-30T05:40:26.098Z,36.10
2019-03-30T05:43:01.390Z,37.60
2019-03-30T05:45:36.752Z,30.50
2019-03-30T05:48:08.571Z,30.50
2019-03-30T05:50:41.574Z,32.30
2019-03-30T05:53:14.352Z,33.30
2019-03-30T05:55:47.330Z,32.00
2019-03-30T05:58:20.193Z,33.20
2019-03-30T06:00:58.089Z,32.80
2019-03-30T06:03:30.958Z,35.80
2019-03-30T06:06:06.261Z,34.20
2019-03-30T06:08:39.161Z,35.30
2019-03-30T06:11:12.735Z,35.90
2019-03-30T06:13:44.628Z,36.40
2019-03-30T06:16:20.414Z,35.70
2019-03-30T06:18:53.712Z,32.50
2019-03-30T06:21:28.894Z,35.50
2019-03-30T06:24:02.121Z,34.60
2019-03-30T06:26:35.307Z,34.70
2019-03-30T06:29:08.626Z,34.50
2019-03-30T06:31:40.207Z,33.50
2019-03-30T06:34:13.071Z,32.30
2019-03-30T06:36:45.828Z,29.10
2019-03-30T06:39:18.718Z,30.00
2019-03-30T06:41:50.241Z,31.30
2019-03-30T06:44:25.562Z,33.50
2019-03-30T06:47:06.263Z,32.80
2019-03-30T06:49:41.532Z,30.00
2019-03-30T06:52:13.236Z,32.40
2019-03-30T06:54:49.218Z,31.90
2019-03-30T06:57:24.844Z,34.00
2019-03-30T06:59:59.975Z,34.30
2019-03-30T07:02:32.813Z,31.10
2019-03-30T07:05:05.861Z,31.60
2019-03-30T07:07:38.741Z,28.90
2019-03-30T07:10:12.303Z,29.80
2019-03-30T07:12:52.508Z,29.20
2019-03-30T07:15:24.243Z,32.10
2019-03-30T07:17:57.478Z,31.00
2019-03-30T07:20:33.009Z,32.90
2019-03-30T07:23:11.698Z,31.20
2019-03-30T07:25:42.650Z,31.40
2019-03-30T07:28:14.052Z,29.80
2019-03-30T07:30:47.302Z,30.50
2019-03-30T07:33:20.092Z,29.60
2019-03-30T07:35:51.849Z,29.90
2019-03-30T07:38:25.029Z,28.80
2019-03-30T07:40:56.880Z,31.60
2019-03-30T07:43:29.805Z,31.70
2019-03-30T07:46:02.779Z,32.60
2019-03-30T07:48:41.750Z,32.00
2019-03-30T07:51:18.602Z,30.00
2019-03-30T07:53:51.466Z,29.60
2019-03-30T07:56:23.130Z,31.80
2019-03-30T07:58:56.104Z,32.20
2019-03-30T08:01:29.048Z,30.90
2019-03-30T08:04:02.150Z,32.90
2019-03-30T08:06:35.623Z,33.00
2019-03-30T08:09:09.970Z,30.80
2019-03-30T08:11:41.527Z,31.70
2019-03-30T08:14:14.872Z,30.00
2019-03-30T08:16:47.565Z,32.20
2019-03-30T08:19:21.883Z,32.60
2019-03-30T08:21:55.299Z,33.60
2019-03-30T08:24:28.170Z,29.00
2019-03-30T08:27:00.883Z,31.20
2019-03-30T08:29:33.910Z,30.40
2019-03-30T08:32:06.867Z,29.80
2019-03-30T08:34:46.640Z,31.80
2019-03-30T08:37:19.640Z,29.40
2019-03-30T08:39:52.819Z,31.90
2019-03-30T08:42:26.047Z,30.00
2019-03-30T08:44:59.601Z,29.30
2019-03-30T08:47:34.847Z,29.20
2019-03-30T08:50:09.661Z,30.90
2019-03-30T08:52:46.935Z,31.50
2019-03-30T08:55:18.739Z,30.90
2019-03-30T08:57:52.058Z,30.50
2019-03-30T09:00:27.188Z,30.60
2019-03-30T09:03:02.478Z,31.40
2019-03-30T09:05:35.750Z,32.30
2019-03-30T09:08:11.339Z,32.80
2019-03-30T09:10:43.234Z,31.80
2019-03-30T09:13:19.649Z,30.90
2019-03-30T09:15:52.485Z,32.60
2019-03-30T09:18:25.651Z,32.80
2019-03-30T09:20:58.830Z,28.20
2019-03-30T09:23:32.252Z,30.30
2019-03-30T09:26:05.195Z,31.40
2019-03-30T09:28:38.098Z,30.10
2019-03-30T09:31:10.850Z,30.00
2019-03-30T09:33:43.572Z,31.20
2019-03-30T09:36:15.154Z,31.40
2019-03-30T09:38:48.294Z,30.50
2019-03-30T09:41:21.341Z,29.90
2019-03-30T09:43:54.259Z,29.60
2019-03-30T09:46:25.712Z,31.20
2019-03-30T09:48:57.262Z,32.60
2019-03-30T09:51:29.031Z,33.40
2019-03-30T09:54:04.325Z,33.00
2019-03-30T09:56:37.312Z,32.80
2019-03-30T09:59:10.893Z,33.50
2019-03-30T10:01:42.700Z,33.80
2019-03-30T10:04:15.823Z,33.60
2019-03-30T10:06:49.174Z,33.90
2019-03-30T10:09:22.348Z,34.10
2019-03-30T10:11:57.633Z,31.80
2019-03-30T10:14:30.722Z,32.60
2019-03-30T10:17:02.500Z,31.80
2019-03-30T10:19:36.440Z,33.40
2019-03-30T10:22:09.773Z,34.10
2019-03-30T10:24:44.235Z,32.20
2019-03-30T10:27:19.522Z,32.80
2019-03-30T10:29:54.859Z,33.40
2019-03-30T10:32:26.445Z,35.30
2019-03-30T10:34:58.254Z,35.10
2019-03-30T10:37:31.123Z,36.30
2019-03-30T10:40:04.075Z,36.40
2019-03-30T10:42:35.854Z,35.90
2019-03-30T10:45:14.851Z,35.60
2019-03-30T10:47:47.531Z,36.60
2019-03-30T10:50:25.072Z,37.40
2019-03-30T10:52:58.411Z,37.50
2019-03-30T10:55:31.476Z,37.80
2019-03-30T10:58:04.145Z,38.30
2019-03-30T11:00:39.402Z,38.40
2019-03-30T11:03:14.675Z,38.30
2019-03-30T11:05:47.987Z,38.40
2019-03-30T11:08:20.824Z,38.30
2019-03-30T11:10:52.581Z,38.70
2019-03-30T11:13:27.217Z,39.10
2019-03-30T11:16:02.543Z,39.40
2019-03-30T11:18:34.454Z,39.90
2019-03-30T11:21:08.034Z,40.10
2019-03-30T11:23:43.781Z,40.50
2019-03-30T11:26:15.427Z,40.80
2019-03-30T11:28:50.703Z,41.30
2019-03-30T11:31:25.556Z,41.70
2019-03-30T11:34:00.349Z,41.80
2019-03-30T11:36:33.366Z,42.00
2019-03-30T11:39:06.063Z,42.40
2019-03-30T11:41:39.354Z,42.40
2019-03-30T11:44:12.540Z,43.20
2019-03-30T11:46:45.683Z,42.60
2019-03-30T11:49:17.650Z,42.00
2019-03-30T11:51:49.190Z,42.70
2019-03-30T11:54:31.772Z,43.20
2019-03-30T11:57:05.399Z,43.30
2019-03-30T11:59:38.491Z,43.50
2019-03-30T12:02:10.318Z,43.90
2019-03-30T12:04:57.157Z,44.20
2019-03-30T12:07:32.252Z,44.40
2019-03-30T12:10:02.802Z,44.80
2019-03-30T12:12:37.364Z,44.90
2019-03-30T12:15:13.714Z,44.90
2019-03-30T12:17:50.079Z,45.00
2019-03-30T12:20:22.821Z,44.90
2019-03-30T12:22:56.851Z,44.80
2019-03-30T12:25:35.722Z,44.70
2019-03-30T12:28:05.049Z,44.60
2019-03-30T12:30:39.049Z,44.20
2019-03-30T12:33:10.573Z,44.20
2019-03-30T12:35:44.208Z,44.40
2019-03-30T12:38:20.075Z,44.30
2019-03-30T12:41:08.868Z,43.80
2019-03-30T12:43:55.954Z,43.70
2019-03-30T12:46:27.558Z,43.80
2019-03-30T12:49:00.722Z,44.20
2019-03-30T12:51:33.581Z,44.40
2019-03-30T12:54:08.980Z,44.70
2019-03-30T12:56:40.636Z,44.60
2019-03-30T12:59:12.276Z,44.50
2019-03-30T13:01:45.114Z,45.20
2019-03-30T13:04:20.346Z,44.70
2019-03-30T13:06:51.899Z,44.90
2019-03-30T13:09:24.922Z,45.10
2019-03-30T13:11:57.583Z,45.80
2019-03-30T13:14:30.460Z,45.40
2019-03-30T13:17:04.318Z,45.30
2019-03-30T13:19:36.951Z,45.40
2019-03-30T13:22:09.700Z,45.40
2019-03-30T13:24:42.633Z,45.40
2019-03-30T13:27:14.323Z,45.40
2019-03-30T13:29:49.558Z,45.30
2019-03-30T13:32:21.117Z,45.00
2019-03-30T13:34:54.210Z,44.80
2019-03-30T13:37:28.726Z,44.90
2019-03-30T13:40:02.012Z,44.90
2019-03-30T13:42:35.079Z,45.00
2019-03-30T13:45:09.228Z,44.90
2019-03-30T13:47:42.006Z,45.00
2019-03-30T13:50:17.066Z,45.20
2019-03-30T13:52:50.067Z,45.40
2019-03-30T13:55:23.564Z,45.70
2019-03-30T13:57:56.260Z,46.00
2019-03-30T14:00:32.077Z,46.10
2019-03-30T14:03:05.140Z,46.30
2019-03-30T14:05:37.887Z,46.40
2019-03-30T14:08:10.948Z,46.00
2019-03-30T14:10:43.799Z,46.00
2019-03-30T14:13:17.066Z,46.40
2019-03-30T14:15:50.870Z,46.60
2019-03-30T14:18:23.956Z,47.00
2019-03-30T14:20:57.263Z,47.30
2019-03-30T14:23:32.817Z,47.30
2019-03-30T14:26:05.627Z,47.30
2019-03-30T14:28:40.045Z,47.40
2019-03-30T14:31:15.234Z,47.10
2019-03-30T14:33:52.103Z,46.80
2019-03-30T14:36:24.884Z,47.10
2019-03-30T14:38:57.984Z,47.10
2019-03-30T14:41:29.641Z,47.10
2019-03-30T14:44:01.442Z,47.40
2019-03-30T14:46:34.343Z,47.60
2019-03-30T14:49:06.001Z,47.90
2019-03-30T14:51:37.543Z,48.10
2019-03-30T14:54:09.093Z,48.20
2019-03-30T14:56:45.989Z,48.40
2019-03-30T14:59:18.371Z,48.40
2019-03-30T15:01:53.778Z,48.50
2019-03-30T15:04:28.485Z,48.60
2019-03-30T15:07:01.225Z,48.80
2019-03-30T15:09:34.618Z,48.90
2019-03-30T15:12:07.809Z,48.90
2019-03-30T15:14:42.940Z,49.00
2019-03-30T15:17:13.617Z,50.20
2019-03-30T15:19:46.597Z,51.10
2019-03-30T15:22:22.256Z,51.00
2019-03-30T15:24:53.795Z,51.00
2019-03-30T15:27:27.112Z,51.00
2019-03-30T15:30:00.348Z,50.70
2019-03-30T15:32:32.212Z,50.60
2019-03-30T15:35:09.133Z,50.60
2019-03-30T15:37:42.323Z,51.20
2019-03-30T15:40:15.599Z,52.30
2019-03-30T15:42:49.088Z,52.10
2019-03-30T15:45:20.669Z,51.60
2019-03-30T15:48:04.092Z,51.40
2019-03-30T15:50:37.488Z,51.40
2019-03-30T15:53:12.674Z,51.20
2019-03-30T15:55:45.964Z,51.20
2019-03-30T15:58:19.240Z,50.90
2019-03-30T16:00:52.520Z,50.70
2019-03-30T16:03:25.691Z,50.40
2019-03-30T16:05:58.248Z,50.00
2019-03-30T16:08:32.770Z,49.80
2019-03-30T16:11:11.918Z,49.80
2019-03-30T16:13:48.797Z,49.10
2019-03-30T16:16:24.256Z,49.20
2019-03-30T16:18:57.158Z,49.50
2019-03-30T16:21:30.060Z,49.70
2019-03-30T16:24:02.827Z,49.80
2019-03-30T16:26:41.889Z,50.00
2019-03-30T16:29:09.638Z,50.10
2019-03-30T16:31:41.270Z,50.00
2019-03-30T16:34:12.724Z,50.10
2019-03-30T16:36:45.493Z,49.70
2019-03-30T16:39:18.678Z,48.40
2019-03-30T16:41:52.960Z,49.00
2019-03-30T16:44:28.409Z,49.00
2019-03-30T16:47:01.218Z,48.00
2019-03-30T16:49:37.947Z,46.80
2019-03-30T16:52:13.297Z,47.20
2019-03-30T16:54:49.200Z,47.20
2019-03-30T16:57:22.181Z,48.00
2019-03-30T16:59:54.863Z,48.30
2019-03-30T17:02:30.052Z,50.00
2019-03-30T17:05:02.289Z,51.10
2019-03-30T17:07:35.798Z,52.60
2019-03-30T17:10:10.500Z,54.90
2019-03-30T17:12:46.871Z,54.70
2019-03-30T17:15:23.095Z,55.60
2019-03-30T17:17:56.010Z,55.80
2019-03-30T17:20:28.805Z,55.90
2019-03-30T17:23:12.310Z,56.10
2019-03-30T17:25:44.964Z,55.90
2019-03-30T17:28:17.735Z,54.90
2019-03-30T17:30:52.928Z,54.40
2019-03-30T17:33:25.182Z,53.90
2019-03-30T17:35:58.002Z,53.50
2019-03-30T17:38:30.871Z,53.00
2019-03-30T17:41:04.070Z,52.80
2019-03-30T17:43:40.064Z,52.40
2019-03-30T17:46:13.076Z,52.50
2019-03-30T17:48:48.401Z,52.40
2019-03-30T17:51:21.522Z,52.40
2019-03-30T17:53:54.387Z,52.40
2019-03-30T17:56:26.091Z,52.20
2019-03-30T17:58:59.950Z,52.10
2019-03-30T18:01:32.910Z,52.60
2019-03-30T18:04:05.966Z,52.80
2019-03-30T18:06:37.622Z,52.50
2019-03-30T18:09:10.872Z,52.20
2019-03-30T18:11:44.464Z,53.00
2019-03-30T18:14:17.536Z,53.40
2019-03-30T18:16:53.709Z,53.40
2019-03-30T18:19:26.605Z,53.40
2019-03-30T18:21:59.246Z,53.40
2019-03-30T18:24:35.056Z,53.40
2019-03-30T18:27:06.756Z,53.30
2019-03-30T18:29:40.721Z,53.40
2019-03-30T18:32:13.531Z,55.00
2019-03-30T18:34:47.019Z,54.30
2019-03-30T18:37:19.226Z,53.80
2019-03-30T18:39:52.130Z,53.80
2019-03-30T18:42:23.929Z,53.80
2019-03-30T18:44:57.806Z,53.80
2019-03-30T18:47:30.527Z,53.60
2019-03-30T18:50:03.329Z,54.10
2019-03-30T18:52:36.197Z,53.40
2019-03-30T18:55:12.086Z,53.70
2019-03-30T18:57:52.093Z,54.40
2019-03-30T19:00:26.172Z,54.30
2019-03-30T19:02:57.826Z,54.80
2019-03-30T19:05:34.399Z,54.40
2019-03-30T19:08:07.943Z,54.50
2019-03-30T19:10:45.801Z,54.60
2019-03-30T19:13:17.846Z,55.50
2019-03-30T19:15:59.741Z,55.40
2019-03-30T19:18:34.953Z,55.40
2019-03-30T19:21:07.951Z,55.50
2019-03-30T19:23:41.587Z,55.70
2019-03-30T19:26:14.539Z,56.70
2019-03-30T19:28:56.210Z,57.50
2019-03-30T19:31:23.061Z,57.50
2019-03-30T19:33:55.214Z,58.20
2019-03-30T19:36:30.909Z,57.50
2019-03-30T19:39:02.570Z,57.30
2019-03-30T19:41:36.033Z,57.00
2019-03-30T19:44:08.694Z,59.30
2019-03-30T19:46:42.636Z,60.00
2019-03-30T19:49:15.403Z,58.80
2019-03-30T19:51:48.094Z,59.50
2019-03-30T19:54:19.638Z,58.60
2019-03-30T19:56:54.837Z,58.00
2019-03-30T19:59:27.900Z,58.80
2019-03-30T20:02:00.741Z,58.80
2019-03-30T20:04:33.615Z,58.10
2019-03-30T20:07:06.257Z,58.10
2019-03-30T20:09:37.826Z,58.00
2019-03-30T20:12:10.925Z,58.30
2019-03-30T20:14:43.981Z,58.50
2019-03-30T20:17:16.789Z,58.40
2019-03-30T20:19:50.029Z,58.60
2019-03-30T20:22:21.687Z,60.80
2019-03-30T20:24:54.641Z,63.90
2019-03-30T20:27:27.649Z,63.90
2019-03-30T20:29:59.301Z,64.00
2019-03-30T20:32:32.221Z,62.60
2019-03-30T20:35:03.942Z,62.80
2019-03-30T20:37:35.696Z,62.20
2019-03-30T20:40:09.574Z,62.60
2019-03-30T20:42:44.950Z,61.80
2019-03-30T20:45:18.451Z,61.80
2019-03-30T20:47:51.994Z,61.80
2019-03-30T20:50:23.661Z,61.70
2019-03-30T20:52:56.548Z,61.50
2019-03-30T20:55:36.376Z,61.60
2019-03-30T20:58:08.098Z,62.40
2019-03-30T21:00:39.635Z,64.10
2019-03-30T21:03:14.215Z,63.10
2019-03-30T21:05:45.778Z,62.00
2019-03-30T21:08:18.591Z,62.20
2019-03-30T21:10:50.282Z,62.60
2019-03-30T21:13:21.912Z,62.40
2019-03-30T21:15:55.073Z,62.60
2019-03-30T21:18:28.074Z,62.90
2019-03-30T21:20:59.617Z,62.10
2019-03-30T21:23:32.750Z,62.40
2019-03-30T21:26:08.128Z,62.90
2019-03-30T21:28:41.012Z,66.50
2019-03-30T21:31:13.952Z,68.20
2019-03-30T21:33:45.788Z,67.30
2019-03-30T21:36:19.051Z,69.40
2019-03-30T21:38:52.082Z,68.40
2019-03-30T21:41:25.356Z,67.80
2019-03-30T21:43:56.930Z,68.40
2019-03-30T21:46:28.567Z,69.40
2019-03-30T21:49:01.667Z,70.30
2019-03-30T21:51:33.222Z,70.20
2019-03-30T21:54:09.307Z,70.10
2019-03-30T21:56:42.339Z,70.80
2019-03-30T21:59:14.086Z,71.00
2019-03-30T22:01:45.639Z,70.80
2019-03-30T22:04:20.704Z,71.80
2019-03-30T22:06:57.009Z,72.00
2019-03-30T22:09:28.909Z,72.00
2019-03-30T22:12:00.449Z,72.00
2019-03-30T22:14:32.031Z,71.60
2019-03-30T22:17:04.969Z,71.20
2019-03-30T22:19:37.769Z,70.40
2019-03-30T22:22:09.334Z,71.80
2019-03-30T22:24:42.126Z,72.80
2019-03-30T22:27:15.090Z,72.80
2019-03-30T22:29:46.640Z,73.10
2019-03-30T22:32:18.234Z,73.50
2019-03-30T22:34:51.022Z,73.70
2019-03-30T22:37:22.814Z,73.90
2019-03-30T22:39:54.454Z,74.00
2019-03-30T22:42:27.033Z,75.00
2019-03-30T22:44:58.675Z,74.40
2019-03-30T22:47:31.562Z,74.40
2019-03-30T22:50:04.859Z,74.60
2019-03-30T22:52:36.878Z,74.90
2019-03-30T22:55:09.243Z,74.90
2019-03-30T22:57:42.027Z,75.00
2019-03-30T23:00:14.859Z,75.10
2019-03-30T23:02:50.011Z,75.20
2019-03-30T23:05:21.662Z,75.10
2019-03-30T23:07:56.602Z,75.20
2019-03-30T23:10:28.147Z,75.40
2019-03-30T23:13:01.717Z,75.50
2019-03-30T23:15:33.409Z,75.70
2019-03-30T23:18:05.170Z,75.80
2019-03-30T23:20:41.234Z,75.90
2019-03-30T23:23:12.984Z,76.00
2019-03-30T23:25:45.884Z,76.20
2019-03-30T23:28:17.634Z,76.10
2019-03-30T23:30:54.625Z,76.20
2019-03-30T23:33:23.399Z,76.50
2019-03-30T23:35:57.103Z,76.20
2019-03-30T23:38:29.916Z,76.20
2019-03-30T23:41:03.368Z,76.10
2019-03-30T23:43:34.907Z,76.40
2019-03-30T23:46:07.919Z,76.00
2019-03-30T23:48:44.166Z,75.90
2019-03-30T23:51:17.010Z,76.00
2019-03-30T23:53:48.521Z,76.00
2019-03-30T23:56:24.395Z,75.80
2019-03-30T23:58:57.359Z,75.80
